Time;durP1;ratioP1;P1;durP2;ratioP2;P2;SDS_P1;SDS_P2;PMS_P1;PMS_P2;Temp;Humidity;BMP_temperature;BMP_pressure;BME280_temperature;BME280_humidity;BME280_pressure;Samples;Min_cycle;Max_cycle;Signal;HPM_P1;HPM_P2
2022/08/11 00:02:27;;;;;;;;;;;;;;;14.83;45.38;101889.05;1588495;88;20448;-74
2022/08/11 00:04:54;;;;;;;;;;;;;;;14.81;45.41;101890.81;1647283;86;20490;-74
2022/08/11 00:07:21;;;;;;;;;;;;;;;14.75;45.51;101887.84;1651577;86;20197;-74
2022/08/11 00:09:47;;;;;;;;;;;;;;;14.70;45.59;101893.55;1647814;86;20202;-74
2022/08/11 00:12:15;;;;;;;;;;;;;;;14.70;45.71;101886.18;1632306;87;20191;-74
2022/08/11 00:14:43;;;;;;;;;;;;;;;14.67;45.96;101886.22;1627016;87;20188;-74
2022/08/11 00:17:11;;;;;;;;;;;;;;;14.64;45.75;101883.21;1621235;87;20486;-74
2022/08/11 00:19:41;;;;;;;;;;;;;;;14.68;45.98;101887.94;1620794;87;20199;-74
2022/08/11 00:22:08;;;;;;;;;;;;;;;14.65;45.92;101883.64;1612739;87;824392;-74
2022/08/11 00:24:36;;;;;;;;;;;;;;;14.63;46.07;101885.83;1640062;86;20572;-74
2022/08/11 00:27:03;;;;;;;;;;;;;;;14.58;46.11;101887.19;1642844;86;20111;-74
2022/08/11 00:29:29;;;;;;;;;;;;;;;14.56;46.23;101885.05;1634808;87;20157;-74
2022/08/11 00:31:57;;;;;;;;;;;;;;;14.56;46.48;101880.70;1605710;89;20608;-74
2022/08/11 00:34:27;;;;;;;;;;;;;;;14.54;46.48;101882.50;1644775;86;20111;-74
2022/08/11 00:36:56;;;;;;;;;;;;;;;14.54;46.50;101880.33;1619794;87;20303;-74
2022/08/11 00:39:25;;;;;;;;;;;;;;;14.52;46.52;101884.25;1641776;86;20180;-74
2022/08/11 00:42:04;;;;;;;;;;;;;;;14.47;46.59;101877.37;1646641;86;20418;-74
2022/08/11 00:44:56;;;;;;;;;;;;;;;14.43;46.79;101878.30;1612106;87;20131;-74
2022/08/11 00:47:38;;;;;;;;;;;;;;;14.44;46.86;101870.91;1639082;86;20435;-74
2022/08/11 00:50:25;;;;;;;;;;;;;;;14.40;46.88;101869.19;1633671;86;20116;-74
2022/08/11 00:53:26;;;;;;;;;;;;;;;14.45;47.05;101872.63;1592267;89;20131;-74
2022/08/11 00:56:14;;;;;;;;;;;;;;;14.47;47.05;101873.48;1592030;89;20133;-74
2022/08/11 00:59:05;;;;;;;;;;;;;;;14.48;47.11;101877.36;1603381;89;20713;-74
2022/08/11 01:01:39;;;;;;;;;;;;;;;14.48;47.18;101876.50;1587813;89;20158;-74
2022/08/11 01:04:37;;;;;;;;;;;;;;;14.39;47.18;101877.44;1643666;86;20139;-74
2022/08/11 01:07:16;;;;;;;;;;;;;;;14.33;47.28;101881.41;1613567;88;20090;-74
2022/08/11 01:10:11;;;;;;;;;;;;;;;14.32;47.46;101881.42;1619930;87;20136;-74
2022/08/11 01:12:42;;;;;;;;;;;;;;;14.33;47.50;101884.01;1626449;87;20133;-74
2022/08/11 01:15:26;;;;;;;;;;;;;;;14.32;47.43;101880.13;1598302;88;20483;-74
2022/08/11 01:18:18;;;;;;;;;;;;;;;14.32;47.51;101880.98;1594945;88;20115;-74
2022/08/11 01:21:09;;;;;;;;;;;;;;;14.33;47.74;101878.80;1609274;88;20445;-74
2022/08/11 01:23:42;;;;;;;;;;;;;;;14.33;47.82;101878.80;1527555;93;20226;-74
2022/08/11 01:26:44;;;;;;;;;;;;;;;14.29;47.88;101877.11;1519216;93;20114;-74
2022/08/11 01:29:34;;;;;;;;;;;;;;;14.30;48.04;101881.88;1520119;93;20186;-74
2022/08/11 01:32:03;;;;;;;;;;;;;;;14.25;48.08;101884.53;1562245;91;20461;-74
2022/08/11 01:34:50;;;;;;;;;;;;;;;14.18;48.23;101886.33;1552964;90;20118;-74
2022/08/11 01:37:31;;;;;;;;;;;;;;;14.13;48.34;101880.76;1522029;92;20150;-74
2022/08/11 01:40:16;;;;;;;;;;;;;;;14.09;48.47;101883.83;1541390;92;20178;-74
2022/08/11 01:46:22;;;;;;;;;;;;;;;14.07;48.62;101880.81;1523139;92;20530;-74
2022/08/11 01:48:52;;;;;;;;;;;;;;;14.04;48.94;101887.34;1541545;92;20177;-74
2022/08/11 01:51:45;;;;;;;;;;;;;;;14.05;48.93;101888.63;1529283;92;20233;-74
2022/08/11 01:54:32;;;;;;;;;;;;;;;14.03;48.88;101888.26;1541689;92;20237;-74
2022/08/11 01:57:05;;;;;;;;;;;;;;;14.01;48.81;101883.52;1547972;92;20229;-74
2022/08/11 01:59:35;;;;;;;;;;;;;;;14.01;48.98;101888.71;1560359;88;20195;-74
2022/08/11 02:02:20;;;;;;;;;;;;;;;14.03;49.00;101888.26;1609080;86;432198;-74
2022/08/11 02:05:01;;;;;;;;;;;;;;;14.02;48.99;101886.53;1625237;86;20113;-74
2022/08/11 02:07:31;;;;;;;;;;;;;;;14.02;48.96;101882.63;1641096;85;20149;-74
2022/08/11 02:11:29;;;;;;;;;;;;;;;14.03;49.06;101877.86;1665142;85;20141;-74
2022/08/11 02:12:50;;;;;;;;;;;;;;;14.03;49.09;101872.66;1590029;88;20232;-74
2022/08/11 02:15:33;;;;;;;;;;;;;;;14.02;49.23;101876.13;1648620;86;20099;-74
2022/08/11 02:18:22;;;;;;;;;;;;;;;14.04;49.16;101879.55;1622561;87;20143;-74
2022/08/11 02:23:43;;;;;;;;;;;;;;;13.98;49.36;101877.90;1651000;86;20111;-74
2022/08/11 02:26:19;;;;;;;;;;;;;;;13.99;49.50;101881.36;1639191;86;20561;-74
2022/08/11 02:29:04;;;;;;;;;;;;;;;13.99;49.57;101887.86;1654027;86;20464;-74
2022/08/11 02:35:03;;;;;;;;;;;;;;;13.93;49.63;101890.09;1616326;87;20130;-74
2022/08/11 02:37:35;;;;;;;;;;;;;;;13.97;49.55;101888.31;1645220;85;20416;-74
2022/08/11 02:40:11;;;;;;;;;;;;;;;13.95;49.86;101893.97;1642820;85;20468;-73
2022/08/11 02:42:50;;;;;;;;;;;;;;;13.91;49.62;101891.40;1563387;90;20189;-74
2022/08/11 02:45:32;;;;;;;;;;;;;;;13.91;49.63;101888.80;1554529;90;20509;-75
2022/08/11 02:51:33;;;;;;;;;;;;;;;13.81;49.66;101894.95;1552791;91;20110;-74
2022/08/11 02:54:08;;;;;;;;;;;;;;;13.79;49.85;101897.14;1522244;93;20108;-74
2022/08/11 02:56:50;;;;;;;;;;;;;;;13.69;49.85;101893.76;1567817;90;20116;-74
2022/08/11 03:02:30;;;;;;;;;;;;;;;13.70;50.16;101897.22;1577885;90;20104;-74
2022/08/11 03:05:19;;;;;;;;;;;;;;;13.68;50.08;101900.27;1567393;90;20111;-74
2022/08/11 03:08:08;;;;;;;;;;;;;;;13.68;50.22;101900.27;1552361;90;20429;-74
2022/08/11 03:16:43;;;;;;;;;;;;;;;13.70;50.22;101901.98;1516659;91;20564;-74
2022/08/11 03:16:45;;;;;;;;;;;;;;;13.63;50.21;101901.61;1558312;90;20143;-74
2022/08/11 03:19:27;;;;;;;;;;;;;;;13.61;50.17;101905.95;1552667;87;20623;-74
2022/08/11 03:22:20;;;;;;;;;;;;;;;13.52;50.32;101902.98;1660650;86;21468;-74
2022/08/11 03:24:59;;;;;;;;;;;;;;;13.47;50.42;101906.52;1652215;85;20107;-74
2022/08/11 03:27:35;;;;;;;;;;;;;;;13.43;50.53;101903.08;1661226;85;20106;-74
2022/08/11 03:30:08;;;;;;;;;;;;;;;13.40;50.49;101904.84;1654552;85;20747;-74
2022/08/11 03:32:37;;;;;;;;;;;;;;;13.44;50.51;101903.95;1653030;85;20182;-74
2022/08/11 03:35:07;;;;;;;;;;;;;;;13.43;50.60;101906.98;1650289;85;20470;-74
2022/08/11 03:37:57;;;;;;;;;;;;;;;13.43;50.48;101904.38;1625039;87;20111;-74
2022/08/11 03:43:58;;;;;;;;;;;;;;;13.38;50.71;101906.16;1668472;85;20136;-74
2022/08/11 03:46:28;;;;;;;;;;;;;;;13.31;50.75;101906.20;1628842;85;20734;-74
2022/08/11 03:49:31;;;;;;;;;;;;;;;13.34;50.89;101911.37;1660682;85;20568;-74
2022/08/11 03:52:19;;;;;;;;;;;;;;;13.33;50.91;101908.35;1665499;85;20761;-74
2022/08/11 03:54:52;;;;;;;;;;;;;;;13.33;51.01;101907.05;1638916;86;20107;-74
2022/08/11 03:57:35;;;;;;;;;;;;;;;13.30;50.96;101904.47;1658564;85;20447;-74
2022/08/11 04:00:21;;;;;;;;;;;;;;;13.28;51.05;101912.28;1659536;85;20109;-74
2022/08/11 04:03:28;;;;;;;;;;;;;;;13.31;51.20;101911.39;1646060;87;20562;-74
2022/08/11 04:06:27;;;;;;;;;;;;;;;13.32;51.31;101910.52;1645172;85;20107;-74
2022/08/11 04:09:02;;;;;;;;;;;;;;;13.31;51.27;101916.16;1651563;87;20423;-74
2022/08/11 04:11:38;;;;;;;;;;;;;;;13.35;51.51;101917.00;1657220;85;20409;-74
2022/08/11 04:17:26;;;;;;;;;;;;;;;13.38;51.45;101911.34;1650877;87;20434;-74
2022/08/11 04:20:32;;;;;;;;;;;;;;;13.37;51.44;101913.95;1651444;85;20404;-74
2022/08/11 04:23:17;;;;;;;;;;;;;;;13.39;51.67;101912.21;1651989;85;20151;-74
2022/08/11 04:25:51;;;;;;;;;;;;;;;13.38;51.75;101911.78;1621988;86;20744;-74
2022/08/11 04:28:55;;;;;;;;;;;;;;;13.38;51.87;101913.08;1621565;86;20720;-74
2022/08/11 04:31:30;;;;;;;;;;;;;;;13.40;51.92;101914.80;1640112;87;20741;-74
2022/08/11 04:34:06;;;;;;;;;;;;;;;13.44;52.03;101911.74;1645422;86;20139;-74
2022/08/11 04:39:42;;;;;;;;;;;;;;;13.53;52.24;101916.84;1640141;86;20447;-74
2022/08/11 04:46:05;;;;;;;;;;;;;;;13.66;52.29;101913.72;1643695;85;20113;-74
2022/08/11 05:04:04;;;;;;;;;;;;;;;13.86;52.77;101915.28;1652921;86;20718;-74
2022/08/11 05:06:36;;;;;;;;;;;;;;;13.96;52.90;101917.36;1648149;85;20463;-74
2022/08/11 05:09:24;;;;;;;;;;;;;;;14.03;53.01;101914.27;1644950;85;20092;-74
2022/08/11 05:12:12;;;;;;;;;;;;;;;14.11;53.11;101913.28;1637152;84;20439;-74
2022/08/11 05:34:52;;;;;;;;;;;;;;;16.70;54.60;101914.98;1654661;86;20417;-74
2022/08/11 05:37:32;;;;;;;;;;;;;;;17.42;54.05;101916.84;1646295;85;20112;-74
2022/08/11 05:57:20;;;;;;;;;;;;;;;22.02;52.63;101921.17;1647333;85;20436;-75
2022/08/11 05:59:47;;;;;;;;;;;;;;;22.59;52.39;101924.31;1645365;86;20155;-75
2022/08/11 06:02:13;;;;;;;;;;;;;;;23.12;52.00;101926.26;1651415;85;20413;-75
2022/08/11 06:04:39;;;;;;;;;;;;;;;23.71;51.68;101924.67;1642896;85;20123;-75
2022/08/11 06:07:08;;;;;;;;;;;;;;;24.10;51.42;101922.23;1645971;85;20099;-75
2022/08/11 06:09:41;;;;;;;;;;;;;;;24.40;51.20;101917.16;1651057;85;20439;-75
2022/08/11 06:12:10;;;;;;;;;;;;;;;24.74;51.16;101918.83;1649418;84;20089;-75
2022/08/11 06:14:41;;;;;;;;;;;;;;;25.05;50.88;101915.34;1649769;85;20486;-75
2022/08/11 06:17:09;;;;;;;;;;;;;;;25.37;50.89;101915.70;1650584;85;20115;-75
2022/08/11 06:19:41;;;;;;;;;;;;;;;25.72;50.67;101919.44;1651220;85;20458;-75
2022/08/11 06:22:10;;;;;;;;;;;;;;;26.05;50.25;101917.87;1659694;85;20115;-75
2022/08/11 06:24:41;;;;;;;;;;;;;;;26.22;49.87;101927.00;1643081;85;20151;-75
2022/08/11 06:27:09;;;;;;;;;;;;;;;26.24;49.88;101926.42;1618828;87;20435;-75
2022/08/11 06:29:40;;;;;;;;;;;;;;;26.33;49.77;101917.95;1646528;85;20136;-76
2022/08/11 06:32:05;;;;;;;;;;;;;;;26.35;49.58;101920.03;1643532;85;20116;-75
2022/08/11 06:34:53;;;;;;;;;;;;;;;26.40;49.52;101920.22;1650141;85;20498;-74
2022/08/11 06:37:25;;;;;;;;;;;;;;;26.59;49.60;101918.10;1643418;85;20549;-74
2022/08/11 06:39:55;;;;;;;;;;;;;;;26.82;49.38;101920.64;1649003;85;20175;-76
2022/08/11 06:42:43;;;;;;;;;;;;;;;27.12;49.29;101923.14;1619496;87;20090;-74
2022/08/11 06:45:33;;;;;;;;;;;;;;;27.41;49.20;101922.09;1588703;88;20492;-75
2022/08/11 06:48:05;;;;;;;;;;;;;;;27.65;48.77;101919.14;1649220;85;20103;-74
2022/08/11 06:53:18;;;;;;;;;;;;;;;28.19;48.53;101918.11;1649226;85;20099;-74
2022/08/11 07:01:45;;;;;;;;;;;;;;;29.20;47.61;101915.73;1648432;85;20118;-77
2022/08/11 07:04:08;;;;;;;;;;;;;;;29.56;47.75;101911.69;1648685;85;20141;-77
2022/08/11 07:15:40;;;;;;;;;;;;;;;30.00;47.70;101911.94;1645817;85;20137;-77
2022/08/11 07:29:10;;;;;;;;;;;;;;;32.14;45.01;101914.73;1616403;87;20172;-76
2022/08/11 07:31:40;;;;;;;;;;;;;;;32.50;45.65;101905.32;1613855;87;20124;-79
2022/08/11 07:34:20;;;;;;;;;;;;;;;32.75;45.27;101910.23;1614946;87;20211;-74
2022/08/11 07:36:52;;;;;;;;;;;;;;;32.92;44.87;101907.34;1613192;87;20189;-76
2022/08/11 07:39:21;;;;;;;;;;;;;;;33.03;44.04;101904.55;1597803;88;20137;-76
2022/08/11 07:41:51;;;;;;;;;;;;;;;33.13;43.85;101908.08;1625403;87;20110;-76
2022/08/11 07:44:17;;;;;;;;;;;;;;;33.06;43.72;101899.40;1611955;87;20192;-76
2022/08/11 07:52:36;;;;;;;;;;;;;;;32.78;42.37;101895.68;1611734;87;20269;-75
2022/08/11 07:55:09;;;;;;;;;;;;;;;32.80;42.31;101889.20;1615207;87;20563;-76
2022/08/11 08:19:40;;;;;;;;;;;;;;;36.06;39.17;101886.07;1591909;88;20228;-71
2022/08/11 08:22:06;;;;;;;;;;;;;;;36.88;37.69;101885.41;1596355;88;20532;-71
2022/08/11 08:24:33;;;;;;;;;;;;;;;37.65;38.17;101892.66;1640660;85;20198;-71
2022/08/11 08:26:59;;;;;;;;;;;;;;;38.48;38.14;101887.68;1639517;86;20210;-69
2022/08/11 08:32:26;;;;;;;;;;;;;;;39.44;36.64;101886.38;1650240;85;20474;-69
2022/08/11 08:34:56;;;;;;;;;;;;;;;40.04;36.04;101884.39;1638767;85;20377;-69
2022/08/11 08:37:24;;;;;;;;;;;;;;;40.71;34.96;101883.86;1639612;85;20113;-69
2022/08/11 08:39:50;;;;;;;;;;;;;;;41.11;35.06;101887.30;1615872;87;20149;-69
2022/08/11 08:42:25;;;;;;;;;;;;;;;41.57;33.77;101882.30;1648094;85;20519;-69
2022/08/11 08:44:55;;;;;;;;;;;;;;;41.56;34.17;101876.54;1614594;87;20203;-69
2022/08/11 08:47:23;;;;;;;;;;;;;;;40.44;33.74;101875.45;1639119;85;20162;-69
2022/08/11 08:49:52;;;;;;;;;;;;;;;41.15;33.44;101873.66;1639222;85;20479;-69
2022/08/11 08:52:21;;;;;;;;;;;;;;;41.75;30.14;101869.56;1642384;85;20167;-69
2022/08/11 08:54:53;;;;;;;;;;;;;;;41.76;31.30;101881.27;1640553;85;20111;-69
2022/08/11 08:57:22;;;;;;;;;;;;;;;41.50;31.70;101869.70;1615499;87;20146;-69
2022/08/11 08:59:49;;;;;;;;;;;;;;;42.00;30.73;101871.27;1639142;85;20145;-69
2022/08/11 09:02:18;;;;;;;;;;;;;;;42.00;28.13;101867.20;1619837;86;20150;-69
2022/08/11 09:04:46;;;;;;;;;;;;;;;40.28;31.14;101864.28;1642224;85;20136;-69
2022/08/11 09:07:17;;;;;;;;;;;;;;;38.71;31.31;101862.91;1639508;85;20150;-69
2022/08/11 09:09:51;;;;;;;;;;;;;;;37.25;31.24;101859.82;1639107;86;20128;-69
2022/08/11 09:12:18;;;;;;;;;;;;;;;35.96;31.09;101857.06;1638353;85;20555;-69
2022/08/11 09:15:02;;;;;;;;;;;;;;;34.82;30.48;101855.69;1630460;85;20141;-69
2022/08/11 09:17:31;;;;;;;;;;;;;;;34.03;31.51;101859.41;1652591;85;20162;-69
2022/08/11 09:20:12;;;;;;;;;;;;;;;33.45;31.28;101854.17;1653649;85;20537;-69
2022/08/11 09:28:14;;;;;;;;;;;;;;;31.50;30.66;101843.52;1656847;85;20450;-69
2022/08/11 09:30:46;;;;;;;;;;;;;;;31.10;30.52;101846.02;1615916;87;20193;-69
2022/08/11 09:33:15;;;;;;;;;;;;;;;30.67;29.44;101838.05;1614703;87;20247;-69
2022/08/11 09:35:42;;;;;;;;;;;;;;;30.18;30.21;101836.61;1613531;87;20507;-69
2022/08/11 09:40:55;;;;;;;;;;;;;;;29.58;30.21;101835.11;1589632;88;20164;-69
2022/08/11 09:46:12;;;;;;;;;;;;;;;28.85;30.31;101833.97;1621566;87;20141;-68
2022/08/11 09:48:45;;;;;;;;;;;;;;;28.53;30.10;101828.33;1620542;87;20156;-68
2022/08/11 09:51:12;;;;;;;;;;;;;;;28.40;30.36;101820.01;1619028;87;20095;-70
2022/08/11 09:53:40;;;;;;;;;;;;;;;28.32;30.29;101813.91;1619483;87;20132;-71
2022/08/11 09:58:57;;;;;;;;;;;;;;;28.08;30.28;101822.27;1622835;87;20191;-71
2022/08/11 10:01:26;;;;;;;;;;;;;;;27.92;30.44;101818.05;1622133;87;20238;-70
2022/08/11 10:03:59;;;;;;;;;;;;;;;27.89;30.41;101818.73;1622091;87;20255;-71
2022/08/11 10:09:17;;;;;;;;;;;;;;;27.60;30.32;101818.94;1618138;87;20260;-71
2022/08/11 10:11:45;;;;;;;;;;;;;;;27.54;30.55;101809.20;1589466;88;20519;-71
2022/08/11 10:16:55;;;;;;;;;;;;;;;27.36;30.53;101804.66;1650236;85;20112;-70
2022/08/11 10:19:22;;;;;;;;;;;;;;;27.33;30.59;101793.77;1643262;85;20199;-70
2022/08/11 10:26:49;;;;;;;;;;;;;;;27.35;30.59;101807.79;1619414;87;20208;-70
2022/08/11 10:27:05;;;;;;;;;;;;;;;27.24;30.60;101790.39;1648153;85;20514;-70
2022/08/11 10:35:08;;;;;;;;;;;;;;;27.33;30.63;101786.27;1646889;85;20194;-71
2022/08/11 10:37:36;;;;;;;;;;;;;;;27.34;30.73;101776.88;1644151;85;20194;-71
2022/08/11 10:40:04;;;;;;;;;;;;;;;27.38;30.68;101780.17;1643144;85;20233;-71
2022/08/11 10:48:01;;;;;;;;;;;;;;;27.55;30.66;101768.39;1618466;87;20238;-71
2022/08/11 10:58:48;;;;;;;;;;;;;;;27.61;30.50;101757.34;1613865;87;20326;-71
2022/08/11 11:01:21;;;;;;;;;;;;;;;27.60;30.42;101755.64;1641806;85;20198;-71
2022/08/11 11:03:54;;;;;;;;;;;;;;;27.59;30.57;101753.45;1646861;85;20766;-71
2022/08/11 11:06:43;;;;;;;;;;;;;;;27.56;30.53;101756.77;1641237;85;20209;-71
2022/08/11 11:09:16;;;;;;;;;;;;;;;27.55;30.10;101755.95;1641607;85;20227;-71
2022/08/11 11:20:07;;;;;;;;;;;;;;;27.57;30.80;101735.89;1639750;85;20501;-71
2022/08/11 11:22:39;;;;;;;;;;;;;;;27.65;30.75;101733.58;1641178;85;20435;-71
2022/08/11 11:25:20;;;;;;;;;;;;;;;27.64;30.67;101735.39;1641527;85;20127;-71
2022/08/11 11:28:07;;;;;;;;;;;;;;;27.62;30.75;101731.98;1641488;85;20501;-71
2022/08/11 11:30:48;;;;;;;;;;;;;;;27.60;30.48;101728.59;1641361;86;20141;-71
2022/08/11 11:33:17;;;;;;;;;;;;;;;27.63;30.23;101731.03;1614887;85;20119;-71
2022/08/11 11:36:08;;;;;;;;;;;;;;;27.56;30.42;101723.08;1641679;85;20380;-71
2022/08/11 11:38:35;;;;;;;;;;;;;;;27.60;30.48;101717.10;1642821;86;20099;-71
2022/08/11 11:43:46;;;;;;;;;;;;;;;27.71;30.44;101718.53;1591759;88;20172;-71
2022/08/11 11:46:12;;;;;;;;;;;;;;;27.76;30.54;101713.73;1589800;88;20144;-71
2022/08/11 11:48:40;;;;;;;;;;;;;;;27.83;30.47;101715.48;1643850;85;20206;-71
2022/08/11 11:51:07;;;;;;;;;;;;;;;27.89;30.68;101714.57;1649923;85;20105;-71
2022/08/11 11:53:34;;;;;;;;;;;;;;;27.89;30.64;101715.05;1644449;86;20103;-71
2022/08/11 11:56:00;;;;;;;;;;;;;;;27.85;30.66;101718.88;1644590;85;20115;-71
2022/08/11 12:01:15;;;;;;;;;;;;;;;27.64;30.61;101715.45;1642444;85;20540;-71
2022/08/11 12:03:47;;;;;;;;;;;;;;;27.55;30.67;101713.92;1641139;85;20143;-71
2022/08/11 12:19:20;;;;;;;1.98;1.50;;;;;;;27.89;29.29;101693.78;1746590;80;28150;-73
2022/08/11 12:27:20;;;;;;;2.00;1.27;;;;;;;27.96;29.58;101693.23;1755075;80;20909;-73
2022/08/11 12:30:05;;;;;;;2.75;1.25;;;;;;;27.90;29.55;101684.37;1726650;81;20910;-73
2022/08/11 12:32:35;;;;;;;2.03;1.10;;;;;;;27.83;29.56;101678.27;1753396;80;20878;-73
2022/08/11 12:35:02;;;;;;;3.50;1.30;;;;;;;27.73;29.60;101678.08;1755954;80;20921;-73
2022/08/11 12:37:39;;;;;;;1.30;1.20;;;;;;;27.73;29.55;101674.09;1725729;81;20917;-74
2022/08/11 12:45:49;;;;;;;5.37;1.50;;;;;;;27.68;29.42;101666.44;1751603;80;21413;-74
2022/08/11 12:54:50;;;;;;;4.25;1.60;;;;;;;27.78;29.38;101643.19;1754703;80;21430;-73
2022/08/11 13:05:45;;;;;;;3.17;1.70;;;;;;;27.91;29.25;101634.70;1753883;80;20903;-73
2022/08/11 13:08:14;;;;;;;1.70;1.60;;;;;;;27.94;29.26;101634.48;1749947;80;20932;-73
2022/08/11 13:13:26;;;;;;;4.05;1.35;;;;;;;27.92;29.10;101631.94;1741413;81;20893;-74
2022/08/11 13:15:54;;;;;;;1.85;1.17;;;;;;;27.92;29.06;101625.28;1779219;80;26354;-73
2022/08/11 13:18:23;;;;;;;5.90;1.35;;;;;;;27.97;29.05;101620.97;1742769;81;21038;-73
2022/08/11 13:20:53;;;;;;;3.40;1.12;;;;;;;27.97;28.95;101624.47;1745523;81;21074;-73
2022/08/11 13:23:22;;;;;;;1.25;1.15;;;;;;;27.94;28.91;101627.83;1775809;79;21637;-74
2022/08/11 13:25:51;;;;;;;2.98;1.30;;;;;;;27.85;28.97;101628.50;1737619;80;21064;-74
2022/08/11 13:28:20;;;;;;;3.72;1.15;;;;;;;27.78;28.87;101634.73;1746922;81;21120;-74
2022/08/11 13:33:35;;;;;;;2.00;1.27;;;;;;;27.75;28.92;101630.13;1749700;81;20851;-74
2022/08/11 13:36:04;;;;;;;2.77;1.57;;;;;;;27.77;28.94;101614.91;1728788;81;20858;-74
2022/08/11 13:38:31;;;;;;;2.20;1.30;;;;;;;27.76;28.84;101615.88;1751078;81;20961;-74
2022/08/11 13:40:59;;;;;;;2.05;1.62;;;;;;;27.76;28.84;101615.88;1779660;79;20914;-73
2022/08/11 13:43:26;;;;;;;;;;;;;;;27.73;28.78;101614.77;1751092;80;20913;-73
2022/08/11 13:46:17;;;;;;;1.47;1.32;;;;;;;27.66;28.69;101613.88;1750735;80;20106;-74
2022/08/11 13:48:22;;;;;;;6.15;1.10;;;;;;;27.63;28.84;101608.78;1766659;79;20929;-74
2022/08/11 13:53:34;;;;;;;4.60;1.25;;;;;;;27.65;28.78;101598.89;1740894;80;20886;-74
2022/08/11 13:56:02;;;;;;;6.55;1.50;;;;;;;27.63;28.69;101595.98;1772327;79;20887;-74
2022/08/11 13:58:30;;;;;;;3.45;1.37;;;;;;;27.57;28.68;101583.09;1743974;80;20850;-74
2022/08/11 14:00:58;;;;;;;4.12;1.42;;;;;;;27.54;28.71;101578.03;1742250;80;20923;-74
2022/08/11 14:03:27;;;;;;;3.40;1.50;;;;;;;27.58;28.69;101575.49;1766597;79;20921;-73
2022/08/11 14:05:56;;;;;;;2.65;1.45;;;;;;;27.59;28.67;101563.94;1769263;79;20917;-74
2022/08/11 14:08:26;;;;;;;4.87;1.22;;;;;;;27.64;28.71;101569.30;1747002;81;20921;-74
2022/08/11 14:13:45;;;;;;;4.00;1.30;;;;;;;27.70;28.53;101574.64;1745685;80;21483;-74
2022/08/11 14:16:25;;;;;;;3.85;1.45;;;;;;;27.69;28.52;101563.64;1750327;80;20865;-73
2022/08/11 14:18:57;;;;;;;3.90;1.22;;;;;;;27.66;28.54;101560.73;1770271;78;20889;-73
2022/08/11 14:24:11;;;;;;;1.90;1.40;;;;;;;27.54;28.47;101560.77;1769947;80;25546;-73
2022/08/11 14:26:42;;;;;;;5.03;1.45;;;;;;;27.44;28.51;101562.38;1743221;81;20953;-74
2022/08/11 14:29:24;;;;;;;2.45;1.30;;;;;;;27.35;28.51;101563.89;1745117;81;21060;-74
2022/08/11 14:31:58;;;;;;;3.62;1.40;;;;;;;27.28;28.58;101557.31;1767637;80;21114;-73
2022/08/11 14:34:28;;;;;;;2.58;1.30;;;;;;;27.21;28.58;101552.91;1751312;79;21154;-74
2022/08/11 14:37:11;;;;;;;3.55;1.20;;;;;;;27.20;28.65;101545.06;1741598;81;21056;-73
2022/08/11 14:39:57;;;;;;;2.30;1.25;;;;;;;27.22;28.66;101553.28;1761842;80;21036;-73
2022/08/11 14:48:00;;;;;;;4.72;1.50;;;;;;;27.40;28.53;101555.59;1747345;81;20953;-74
2022/08/11 14:50:29;;;;;;;2.98;1.45;;;;;;;27.44;28.48;101551.76;1778182;80;20889;-74
2022/08/11 14:53:06;;;;;;;3.10;1.10;;;;;;;27.47;28.48;101550.20;1751973;80;20916;-73
2022/08/11 14:58:24;;;;;;;1.37;1.12;;;;;;;27.57;28.22;101552.06;1757449;81;20406;-74
2022/08/11 15:00:57;;;;;;;2.00;1.47;;;;;;;27.60;28.37;101551.02;1768361;80;20888;-73
2022/08/11 15:03:27;;;;;;;5.20;1.90;;;;;;;27.62;28.44;101554.41;1773261;80;20932;-74
2022/08/11 15:06:00;;;;;;;3.98;1.40;;;;;;;27.63;28.40;101548.98;1777039;80;20897;-73
2022/08/11 15:08:55;;;;;;;5.97;1.57;;;;;;;27.63;28.36;101548.14;1752127;81;20945;-74
2022/08/11 15:14:12;;;;;;;4.22;1.60;;;;;;;27.59;28.39;101554.64;1734706;81;20925;-74
2022/08/11 15:19:30;;;;;;;9.40;1.65;;;;;;;27.58;28.37;101543.13;1743278;82;20942;-74
2022/08/11 15:24:42;;;;;;;3.25;1.42;;;;;;;27.55;28.33;101533.23;1744346;81;21020;-74
2022/08/11 15:38:23;;;;;;;6.28;1.47;;;;;;;27.46;28.33;101526.78;1754808;80;20234;-75
2022/08/11 15:46:45;;;;;;;3.42;1.20;;;;;;;27.49;28.28;101537.66;1756055;81;20986;-75
2022/08/11 15:49:19;;;;;;;5.22;1.65;;;;;;;27.46;28.28;101537.41;1746331;81;21463;-75
2022/08/11 15:51:54;;;;;;;1.82;1.27;;;;;;;27.45;28.27;101529.06;1748127;81;21054;-75
2022/08/11 15:54:24;;;;;;;4.65;1.40;;;;;;;27.44;28.27;101536.66;1741779;81;21481;-75
2022/08/11 15:56:53;;;;;;;2.95;1.47;;;;;;;27.39;28.29;101538.80;1752509;81;21039;-75
2022/08/11 16:05:01;;;;;;;3.20;1.98;;;;;;;27.27;28.28;101531.72;1752665;81;21052;-74
2022/08/11 16:07:34;;;;;;;2.47;1.30;;;;;;;27.20;28.29;101529.13;1753202;81;22243;-75
2022/08/11 16:10:07;;;;;;;9.45;3.85;;;;;;;27.17;28.31;101528.02;1754213;81;21102;-75
2022/08/11 16:12:38;;;;;;;2.10;1.77;;;;;;;27.13;28.33;101523.88;1752580;81;20925;-75
2022/08/11 16:18:02;;;;;;;3.27;1.50;;;;;;;27.07;28.41;101519.00;1730733;81;20857;-75
2022/08/11 16:20:30;;;;;;;6.53;1.57;;;;;;;27.06;28.43;101527.45;1728367;82;20926;-75
2022/08/11 16:23:02;;;;;;;4.00;1.37;;;;;;;27.04;28.45;101523.57;1719766;82;20903;-75
2022/08/11 16:25:32;;;;;;;3.35;1.10;;;;;;;27.04;28.47;101522.72;1726614;82;21299;-75
2022/08/11 16:28:05;;;;;;;1.95;1.77;;;;;;;27.02;28.50;101524.67;1767868;80;20875;-75
2022/08/11 16:30:35;;;;;;;11.68;1.52;;;;;;;27.00;28.49;101525.25;1751104;81;20863;-75
2022/08/11 16:33:04;;;;;;;2.95;1.52;;;;;;;27.00;28.49;101529.23;1769368;81;21264;-75
2022/08/11 16:38:34;;;;;;;5.67;1.40;;;;;;;26.98;28.55;101527.17;1736492;81;20930;-75
2022/08/11 16:41:11;;;;;;;7.78;1.70;;;;;;;26.99;28.52;101528.39;1759630;81;20954;-75
2022/08/11 16:49:23;;;;;;;15.27;1.80;;;;;;;27.02;28.61;101527.32;1738531;82;20906;-75
2022/08/11 16:51:51;;;;;;;5.57;1.70;;;;;;;27.02;28.63;101523.34;1754780;81;21326;-75
2022/08/11 16:54:19;;;;;;;4.05;1.50;;;;;;;27.02;28.70;101519.36;1747177;81;20944;-75
2022/08/11 16:56:53;;;;;;;4.03;1.50;;;;;;;26.99;28.69;101519.09;1748491;80;20937;-75
2022/08/11 16:59:29;;;;;;;4.33;1.77;;;;;;;26.97;28.76;101524.98;1749707;80;20870;-75
2022/08/11 17:02:10;;;;;;;5.40;1.62;;;;;;;26.94;28.75;101522.52;1746833;81;21048;-75
2022/08/11 17:13:17;;;;;;;5.35;1.60;;;;;;;26.81;28.91;101523.48;1750172;81;21080;-75
2022/08/11 17:18:57;;;;;;;3.20;1.62;;;;;;;26.69;29.02;101518.55;1749491;81;21051;-75
2022/08/11 17:24:35;;;;;;;2.90;1.30;;;;;;;26.58;29.09;101520.61;1750211;81;21028;-75
2022/08/11 17:27:06;;;;;;;4.65;1.47;;;;;;;26.48;29.13;101524.03;1749463;81;21000;-77
2022/08/11 17:29:40;;;;;;;3.60;1.60;;;;;;;26.36;29.30;101521.73;1746602;81;21052;-76
2022/08/11 17:35:29;;;;;;;3.42;1.65;;;;;;;26.19;29.46;101525.48;1750233;81;21028;-77
2022/08/11 17:38:12;;;;;;;2.98;1.50;;;;;;;26.09;29.53;101527.52;1733907;82;21035;-76
2022/08/11 17:48:24;;;;;;;3.47;1.20;;;;;;;26.01;29.61;101528.02;1737955;81;21049;-76
2022/08/11 17:48:46;;;;;;;6.90;1.77;;;;;;;25.75;29.78;101532.41;1746216;81;21071;-75
2022/08/11 17:59:51;;;;;;;;;;;;;;;25.38;29.96;101529.47;1744014;81;21735;-76
2022/08/11 18:05:18;;;;;;;4.85;1.47;;;;;;;25.20;30.20;101531.09;1739411;80;21045;-76
